Time;durP1;ratioP1;P1;durP2;ratioP2;P2;SDS_P1;SDS_P2;PMS_P1;PMS_P2;Temp;Humidity;BMP_temperature;BMP_pressure;BME280_temperature;BME280_humidity;BME280_pressure;Samples;Min_cycle;Max_cycle;Signal;HPM_P1;HPM_P2
2024/02/12 00:01:55;;;;;;;8.27;4.88;;;;;;;;;;5069912;28;20455;-75
2024/02/12 00:04:21;;;;;;;10.32;4.45;;;;;;;;;;5075568;28;20067;-75
2024/02/12 00:06:47;;;;;;;8.23;5.00;;;;;;;;;;5072146;28;20041;-75
2024/02/12 00:09:13;;;;;;;6.75;4.53;;;;;;;;;;5070205;28;20039;-75
2024/02/12 00:11:38;;;;;;;7.53;4.45;;;;;;;;;;5068432;28;20074;-75
2024/02/12 00:14:04;;;;;;;8.98;5.10;;;;;;;;;;5069966;28;20046;-75
2024/02/12 00:16:29;;;;;;;7.90;5.10;;;;;;;;;;5071359;28;20052;-75
2024/02/12 00:18:55;;;;;;;9.48;5.82;;;;;;;;;;5069821;28;20037;-75
2024/02/12 00:21:20;;;;;;;10.60;5.70;;;;;;;;;;5069606;28;20028;-75
2024/02/12 00:23:46;;;;;;;8.23;4.75;;;;;;;;;;5069598;28;20085;-75
2024/02/12 00:26:11;;;;;;;9.15;6.38;;;;;;;;;;5071839;28;20115;-75
2024/02/12 00:28:37;;;;;;;9.05;4.97;;;;;;;;;;5074091;28;20128;-75
2024/02/12 00:31:02;;;;;;;10.75;5.47;;;;;;;;;;5069329;28;20059;-75
2024/02/12 00:33:28;;;;;;;9.35;5.35;;;;;;;;;;5078611;28;20032;-75
2024/02/12 00:35:54;;;;;;;9.30;5.53;;;;;;;;;;5075561;28;20023;-75
2024/02/12 00:38:19;;;;;;;10.20;5.63;;;;;;;;;;5081202;28;20548;-75
2024/02/12 00:40:44;;;;;;;10.30;6.00;;;;;;;;;;5079338;28;20085;-75
2024/02/12 00:43:10;;;;;;;8.95;4.30;;;;;;;;;;5073728;28;20106;-76
2024/02/12 00:45:35;;;;;;;8.13;4.75;;;;;;;;;;5074627;28;20025;-76
2024/02/12 00:48:01;;;;;;;9.13;5.10;;;;;;;;;;5074933;28;20395;-75
2024/02/12 00:50:26;;;;;;;10.02;5.22;;;;;;;;;;5073148;28;20035;-75
2024/02/12 00:52:53;;;;;;;9.80;5.45;;;;;;;;;;5073205;28;20032;-75
2024/02/12 00:55:18;;;;;;;9.32;4.97;;;;;;;;;;5073353;28;20032;-75
2024/02/12 00:57:43;;;;;;;9.27;4.50;;;;;;;;;;5075169;28;20396;-75
2024/02/12 01:00:12;;;;;;;8.90;5.03;;;;;;;;;;5072886;28;20021;-75
2024/02/12 01:02:40;;;;;;;7.95;4.40;;;;;;;;;;5078383;28;20063;-76
2024/02/12 01:05:06;;;;;;;8.45;4.90;;;;;;;;;;5071460;28;20112;-75
2024/02/12 01:07:31;;;;;;;8.65;4.70;;;;;;;;;;5078808;28;20108;-75
2024/02/12 01:09:57;;;;;;;12.20;4.63;;;;;;;;;;5072757;28;20131;-75
2024/02/12 01:12:23;;;;;;;8.07;4.45;;;;;;;;;;5073208;28;20056;-75
2024/02/12 01:14:49;;;;;;;8.52;4.78;;;;;;;;;;5072558;28;20031;-75
2024/02/12 01:17:15;;;;;;;9.07;3.92;;;;;;;;;;5077052;28;20040;-75
2024/02/12 01:19:41;;;;;;;7.93;4.70;;;;;;;;;;5077273;28;20028;-75
2024/02/12 01:22:08;;;;;;;8.70;4.13;;;;;;;;;;5072501;28;20118;-75
2024/02/12 01:24:33;;;;;;;7.80;3.88;;;;;;;;;;5076710;28;20093;-75
2024/02/12 01:26:59;;;;;;;7.85;3.97;;;;;;;;;;5075199;28;20489;-75
2024/02/12 01:29:24;;;;;;;9.05;3.90;;;;;;;;;;5081879;28;20024;-75
2024/02/12 01:31:53;;;;;;;8.20;4.78;;;;;;;;;;5072258;28;20041;-76
2024/02/12 01:34:18;;;;;;;6.90;4.07;;;;;;;;;;5080192;28;20039;-75
2024/02/12 01:36:43;;;;;;;7.18;4.28;;;;;;;;;;5073740;28;20036;-75
2024/02/12 01:39:09;;;;;;;7.05;3.95;;;;;;;;;;5072882;28;20036;-75
2024/02/12 01:41:36;;;;;;;6.68;3.97;;;;;;;;;;5072368;28;20078;-75
2024/02/12 01:44:03;;;;;;;7.47;4.05;;;;;;;;;;5071924;28;20512;-75
2024/02/12 01:46:29;;;;;;;5.57;3.38;;;;;;;;;;5073493;28;20039;-75
2024/02/12 01:48:55;;;;;;;8.25;3.80;;;;;;;;;;5072389;28;20032;-75
2024/02/12 01:51:20;;;;;;;6.60;3.33;;;;;;;;;;5072142;28;20042;-75
2024/02/12 01:53:47;;;;;;;7.50;4.00;;;;;;;;;;5072259;28;20112;-75
2024/02/12 01:56:13;;;;;;;8.10;4.47;;;;;;;;;;5079599;28;20046;-75
2024/02/12 01:58:42;;;;;;;6.68;3.30;;;;;;;;;;5071030;28;20485;-75
2024/02/12 02:01:07;;;;;;;6.97;3.90;;;;;;;;;;5071731;28;20119;-75
2024/02/12 02:03:33;;;;;;;5.80;3.38;;;;;;;;;;5079522;28;20132;-75
2024/02/12 02:05:59;;;;;;;8.70;3.25;;;;;;;;;;5072711;28;20048;-75
2024/02/12 02:08:39;;;;;;;7.97;3.60;;;;;;;;;;5072287;28;20033;-75
2024/02/12 02:11:05;;;;;;;5.97;3.10;;;;;;;;;;5071419;28;20527;-75
2024/02/12 02:13:33;;;;;;;6.80;3.22;;;;;;;;;;5071871;28;20029;-75
2024/02/12 02:16:00;;;;;;;7.30;3.13;;;;;;;;;;5072438;28;20089;-75
2024/02/12 02:18:25;;;;;;;5.20;2.75;;;;;;;;;;5072131;28;20032;-76
2024/02/12 02:20:50;;;;;;;8.05;3.03;;;;;;;;;;5071516;28;20031;-75
2024/02/12 02:23:16;;;;;;;8.07;3.05;;;;;;;;;;5071542;28;20024;-75
2024/02/12 02:25:41;;;;;;;7.40;2.92;;;;;;;;;;5071645;28;20534;-75
2024/02/12 02:28:06;;;;;;;6.10;3.05;;;;;;;;;;5072067;28;20090;-75
2024/02/12 02:30:31;;;;;;;5.85;3.03;;;;;;;;;;5072413;28;20016;-76
2024/02/12 02:32:57;;;;;;;6.30;2.92;;;;;;;;;;5080851;28;20103;-75
2024/02/12 02:35:22;;;;;;;5.93;2.55;;;;;;;;;;5071325;28;20037;-75
2024/02/12 02:37:48;;;;;;;6.10;2.55;;;;;;;;;;5071834;28;20036;-75
2024/02/12 02:40:13;;;;;;;6.88;3.20;;;;;;;;;;5071117;28;20477;-75
2024/02/12 02:42:38;;;;;;;6.28;3.15;;;;;;;;;;5071687;28;20025;-75
2024/02/12 02:45:06;;;;;;;6.35;2.63;;;;;;;;;;5078555;28;20506;-75
2024/02/12 02:47:31;;;;;;;4.85;2.20;;;;;;;;;;5075699;28;20129;-75
2024/02/12 02:49:57;;;;;;;5.53;2.80;;;;;;;;;;5070761;28;20066;-75
2024/02/12 02:52:24;;;;;;;4.60;2.60;;;;;;;;;;5071247;28;20064;-75
2024/02/12 02:54:49;;;;;;;5.68;2.70;;;;;;;;;;5069959;28;20043;-75
2024/02/12 02:57:15;;;;;;;12.50;3.60;;;;;;;;;;5076520;28;20028;-75
2024/02/12 02:59:41;;;;;;;6.53;2.65;;;;;;;;;;5071309;28;20108;-75
2024/02/12 03:02:06;;;;;;;5.13;2.28;;;;;;;;;;5072450;28;20158;-75
2024/02/12 03:04:34;;;;;;;6.95;2.45;;;;;;;;;;5075558;28;20028;-75
2024/02/12 03:06:59;;;;;;;6.22;2.72;;;;;;;;;;5077067;28;20485;-75
2024/02/12 03:09:24;;;;;;;6.22;2.80;;;;;;;;;;5071034;28;20090;-75
2024/02/12 03:11:51;;;;;;;7.82;2.67;;;;;;;;;;5069222;28;20090;-75
2024/02/12 03:14:16;;;;;;;5.68;2.80;;;;;;;;;;5070687;28;20074;-75
2024/02/12 03:16:42;;;;;;;5.18;2.75;;;;;;;;;;5078412;28;20407;-75
2024/02/12 03:19:08;;;;;;;4.95;2.25;;;;;;;;;;5078461;28;20028;-77
2024/02/12 03:21:33;;;;;;;5.05;2.70;;;;;;;;;;5070187;28;20036;-75
2024/02/12 03:23:59;;;;;;;4.90;2.13;;;;;;;;;;5077754;28;20033;-75
2024/02/12 03:26:25;;;;;;;4.90;2.35;;;;;;;;;;5081439;28;20034;-75
2024/02/12 03:28:51;;;;;;;6.35;2.90;;;;;;;;;;5071618;28;20048;-75
2024/02/12 03:31:16;;;;;;;6.72;2.72;;;;;;;;;;5070470;28;20040;-75
2024/02/12 03:33:42;;;;;;;5.35;2.70;;;;;;;;;;5076470;28;20029;-76
2024/02/12 03:36:08;;;;;;;4.80;2.17;;;;;;;;;;5072384;28;20035;-76
2024/02/12 03:38:33;;;;;;;5.90;2.35;;;;;;;;;;5073406;28;20029;-76
2024/02/12 03:40:58;;;;;;;7.28;2.53;;;;;;;;;;5070208;28;20037;-76
2024/02/12 03:43:27;;;;;;;5.32;2.30;;;;;;;;;;5070174;28;20030;-76
2024/02/12 03:45:55;;;;;;;4.63;2.30;;;;;;;;;;5070289;28;20051;-76
2024/02/12 04:02:13;;;;;;;6.45;2.40;;;;;;;;;;5072709;28;20123;-76
2024/02/12 04:04:39;;;;;;;4.22;1.83;;;;;;;;;;5070568;28;20455;-76
2024/02/12 04:07:04;;;;;;;5.78;2.20;;;;;;;;;;5082920;28;20094;-76
2024/02/12 04:09:31;;;;;;;4.28;2.22;;;;;;;;;;5075618;28;20036;-77
2024/02/12 04:11:56;;;;;;;6.22;2.10;;;;;;;;;;5080465;28;20036;-76
2024/02/12 04:14:21;;;;;;;6.20;2.10;;;;;;;;;;5075157;28;20035;-76
2024/02/12 04:16:47;;;;;;;4.70;2.17;;;;;;;;;;5079883;28;20354;-76
2024/02/12 04:19:13;;;;;;;3.90;1.83;;;;;;;;;;5069276;28;20029;-77
2024/02/12 04:21:40;;;;;;;4.38;2.20;;;;;;;;;;5069460;28;20032;-76
2024/02/12 04:24:06;;;;;;;5.55;2.42;;;;;;;;;;5068534;28;20036;-76
2024/02/12 04:26:32;;;;;;;5.45;2.20;;;;;;;;;;5074470;28;20035;-76
2024/02/12 04:28:57;;;;;;;5.75;2.25;;;;;;;;;;5069714;28;20047;-76
2024/02/12 04:31:22;;;;;;;6.03;2.45;;;;;;;;;;5069424;28;20029;-76
2024/02/12 04:33:48;;;;;;;7.35;2.10;;;;;;;;;;5072027;28;20032;-76
2024/02/12 04:36:15;;;;;;;4.88;1.90;;;;;;;;;;5075307;28;20048;-77
2024/02/12 04:38:40;;;;;;;4.90;2.00;;;;;;;;;;5085362;28;20035;-76
2024/02/12 04:41:06;;;;;;;4.55;2.33;;;;;;;;;;5069374;28;20032;-76
2024/02/12 04:43:31;;;;;;;6.30;2.38;;;;;;;;;;5069691;28;20405;-76
2024/02/12 04:45:57;;;;;;;8.95;4.47;;;;;;;;;;5069575;28;20098;-76
2024/02/12 04:48:22;;;;;;;7.32;3.15;;;;;;;;;;5076558;28;20036;-76
2024/02/12 04:50:47;;;;;;;5.63;2.63;;;;;;;;;;5069701;28;20040;-76
2024/02/12 04:53:12;;;;;;;4.47;2.13;;;;;;;;;;5069835;28;20036;-76
2024/02/12 04:55:37;;;;;;;7.30;2.70;;;;;;;;;;5069970;28;20028;-76
2024/02/12 04:58:04;;;;;;;6.03;2.42;;;;;;;;;;5074634;28;20024;-76
2024/02/12 05:00:30;;;;;;;5.40;2.03;;;;;;;;;;5072407;28;20021;-77
2024/02/12 05:02:55;;;;;;;4.72;2.10;;;;;;;;;;5075003;28;20119;-77
2024/02/12 05:05:21;;;;;;;4.13;2.05;;;;;;;;;;5069348;28;20536;-76
2024/02/12 05:07:46;;;;;;;5.82;2.10;;;;;;;;;;5079506;28;20040;-76
2024/02/12 05:10:12;;;;;;;5.70;2.40;;;;;;;;;;5068935;28;20036;-76
2024/02/12 05:12:37;;;;;;;6.10;2.13;;;;;;;;;;5069471;28;20033;-76
2024/02/12 05:15:03;;;;;;;5.53;1.95;;;;;;;;;;5069163;28;20024;-76
2024/02/12 05:17:41;;;;;;;6.25;2.20;;;;;;;;;;5076098;28;20032;-76
2024/02/12 05:22:51;;;;;;;6.63;2.38;;;;;;;;;;5080974;28;20396;-76
2024/02/12 05:25:16;;;;;;;4.20;2.00;;;;;;;;;;5079867;28;20020;-76
2024/02/12 05:27:42;;;;;;;5.10;2.55;;;;;;;;;;5077541;28;20463;-76
2024/02/12 05:30:07;;;;;;;6.32;2.72;;;;;;;;;;5085752;28;20495;-76
2024/02/12 05:32:32;;;;;;;4.93;2.20;;;;;;;;;;5084456;28;20807;-76
2024/02/12 05:34:57;;;;;;;4.60;2.10;;;;;;;;;;5086855;28;20480;-76
2024/02/12 05:37:23;;;;;;;5.38;1.88;;;;;;;;;;5086176;28;20028;-76
2024/02/12 05:39:48;;;;;;;7.20;2.38;;;;;;;;;;5085166;28;20032;-76
2024/02/12 05:42:13;;;;;;;6.90;1.85;;;;;;;;;;5079994;28;20063;-76
2024/02/12 05:44:38;;;;;;;8.05;2.30;;;;;;;;;;5083486;28;20130;-76
2024/02/12 05:47:05;;;;;;;3.88;1.85;;;;;;;;;;5081035;28;20028;-76
2024/02/12 05:49:32;;;;;;;3.75;1.75;;;;;;;;;;5081295;28;20115;-76
2024/02/12 05:51:57;;;;;;;8.07;2.25;;;;;;;;;;5071697;28;20123;-76
2024/02/12 05:54:23;;;;;;;4.38;2.28;;;;;;;;;;5072316;28;20095;-76
2024/02/12 05:56:48;;;;;;;4.85;2.33;;;;;;;;;;5079407;28;20037;-76
2024/02/12 05:59:13;;;;;;;8.18;3.15;;;;;;;;;;5078735;28;20023;-76
2024/02/12 06:01:38;;;;;;;5.55;2.15;;;;;;;;;;5075985;28;20032;-76
2024/02/12 06:04:04;;;;;;;9.23;4.85;;;;;;;;;;5075513;28;20169;-76
2024/02/12 06:06:29;;;;;;;8.10;4.25;;;;;;;;;;5077221;28;20097;-76
2024/02/12 06:08:54;;;;;;;3.10;1.95;;;;;;;;;;5079552;28;20032;-76
2024/02/12 06:11:20;;;;;;;3.95;1.90;;;;;;;;;;5077802;28;20115;-76
2024/02/12 06:13:45;;;;;;;4.30;1.88;;;;;;;;;;5071506;28;20036;-76
2024/02/12 06:16:11;;;;;;;4.22;1.70;;;;;;;;;;5075668;28;20060;-76
2024/02/12 06:18:36;;;;;;;4.90;2.05;;;;;;;;;;5076866;28;20044;-77
2024/02/12 06:21:02;;;;;;;3.58;1.60;;;;;;;;;;5076019;28;20036;-76
2024/02/12 06:23:27;;;;;;;4.68;1.67;;;;;;;;;;5071784;28;20035;-76
2024/02/12 06:25:52;;;;;;;4.00;1.73;;;;;;;;;;5071611;28;20035;-76
2024/02/12 06:28:18;;;;;;;5.63;2.22;;;;;;;;;;5077234;28;20020;-77
2024/02/12 06:30:43;;;;;;;6.10;1.77;;;;;;;;;;5070211;28;20036;-76
2024/02/12 06:33:08;;;;;;;4.00;1.58;;;;;;;;;;5076199;28;20064;-76
2024/02/12 06:35:33;;;;;;;3.83;1.88;;;;;;;;;;5076067;28;20029;-76
2024/02/12 06:38:03;;;;;;;3.78;1.75;;;;;;;;;;5075773;28;20044;-76
2024/02/12 06:40:29;;;;;;;7.40;1.92;;;;;;;;;;5076268;28;20063;-77
2024/02/12 06:42:54;;;;;;;5.78;1.67;;;;;;;;;;5071602;28;20100;-76
2024/02/12 06:45:19;;;;;;;5.07;1.58;;;;;;;;;;5070965;28;20077;-76
2024/02/12 06:47:45;;;;;;;4.20;1.85;;;;;;;;;;5076488;28;20035;-76
2024/02/12 06:50:11;;;;;;;3.60;1.50;;;;;;;;;;5075447;28;20032;-76
2024/02/12 06:52:38;;;;;;;5.20;1.55;;;;;;;;;;5071247;28;20033;-76
2024/02/12 06:55:05;;;;;;;3.53;1.45;;;;;;;;;;5070766;28;20115;-76
2024/02/12 06:57:30;;;;;;;3.60;1.88;;;;;;;;;;5076123;28;20024;-76
2024/02/12 07:00:05;;;;;;;3.47;1.60;;;;;;;;;;5070564;28;20484;-76
2024/02/12 07:02:37;;;;;;;4.15;1.70;;;;;;;;;;5077226;28;20030;-76
2024/02/12 07:05:03;;;;;;;2.67;1.35;;;;;;;;;;5070739;28;20539;-76
2024/02/12 07:07:28;;;;;;;3.83;1.83;;;;;;;;;;5077700;28;20036;-77
2024/02/12 07:09:53;;;;;;;4.25;1.40;;;;;;;;;;5070356;28;20058;-76
2024/02/12 07:12:18;;;;;;;4.00;1.95;;;;;;;;;;5071032;28;20044;-76
2024/02/12 07:14:43;;;;;;;3.72;1.35;;;;;;;;;;5070619;28;20036;-76
2024/02/12 07:17:09;;;;;;;7.82;1.88;;;;;;;;;;5075428;28;20028;-76
2024/02/12 07:19:35;;;;;;;4.28;1.40;;;;;;;;;;5077175;28;20036;-76
2024/02/12 07:22:00;;;;;;;3.78;1.60;;;;;;;;;;5068763;28;20049;-76
2024/02/12 07:24:25;;;;;;;3.38;1.67;;;;;;;;;;5070133;28;20028;-76
2024/02/12 07:26:51;;;;;;;6.22;1.90;;;;;;;;;;5073482;28;20127;-76
2024/02/12 07:29:16;;;;;;;7.90;2.25;;;;;;;;;;5070638;28;20085;-76
2024/02/12 07:31:42;;;;;;;2.78;1.33;;;;;;;;;;5073297;28;20504;-76
2024/02/12 07:34:07;;;;;;;3.65;1.50;;;;;;;;;;5081351;28;20047;-76
2024/02/12 07:36:32;;;;;;;6.20;1.70;;;;;;;;;;5071171;28;20027;-76
2024/02/12 07:38:57;;;;;;;4.68;1.67;;;;;;;;;;5076521;28;20028;-76
2024/02/12 07:41:22;;;;;;;5.47;1.70;;;;;;;;;;5077746;28;20036;-76
2024/02/12 07:43:47;;;;;;;3.70;1.50;;;;;;;;;;5075017;28;20032;-76
2024/02/12 07:46:14;;;;;;;4.18;1.52;;;;;;;;;;5070231;28;20086;-76
2024/02/12 07:48:40;;;;;;;4.05;1.92;;;;;;;;;;5074788;28;20550;-76
2024/02/12 07:51:05;;;;;;;3.40;1.40;;;;;;;;;;5069505;28;20033;-77
2024/02/12 07:53:30;;;;;;;4.13;1.70;;;;;;;;;;5070118;28;20047;-76
2024/02/12 07:55:55;;;;;;;4.88;1.83;;;;;;;;;;5070005;28;20108;-76
2024/02/12 07:58:21;;;;;;;4.28;1.60;;;;;;;;;;5079703;28;20059;-76
2024/02/12 08:00:48;;;;;;;8.80;3.38;;;;;;;;;;5073238;28;20028;-76
2024/02/12 08:03:15;;;;;;;8.40;2.55;;;;;;;;;;5070683;28;20044;-76
2024/02/12 08:05:40;;;;;;;5.13;2.08;;;;;;;;;;5073408;28;20508;-76
2024/02/12 08:08:06;;;;;;;5.95;2.53;;;;;;;;;;5078271;28;20075;-76
2024/02/12 08:10:31;;;;;;;4.15;1.45;;;;;;;;;;5070447;28;20043;-77
2024/02/12 08:12:57;;;;;;;3.63;1.05;;;;;;;;;;5071948;28;20029;-76
2024/02/12 08:15:22;;;;;;;3.38;1.40;;;;;;;;;;5074274;28;20415;-76
2024/02/12 08:17:47;;;;;;;7.13;1.60;;;;;;;;;;5074111;28;20502;-76
2024/02/12 08:20:12;;;;;;;4.95;1.90;;;;;;;;;;5075525;28;20117;-76
2024/02/12 08:22:37;;;;;;;7.05;1.77;;;;;;;;;;5074913;28;20420;-76
2024/02/12 08:25:03;;;;;;;6.43;1.90;;;;;;;;;;5071006;28;20028;-76
2024/02/12 08:27:29;;;;;;;4.55;1.50;;;;;;;;;;5080048;28;20063;-76
2024/02/12 08:29:54;;;;;;;5.75;1.50;;;;;;;;;;5068388;28;20025;-76
2024/02/12 08:32:19;;;;;;;4.50;1.30;;;;;;;;;;5070936;28;20405;-76
2024/02/12 08:34:44;;;;;;;5.88;1.52;;;;;;;;;;5069698;28;20064;-76
2024/02/12 08:37:10;;;;;;;3.60;1.27;;;;;;;;;;5073374;28;20043;-76
2024/02/12 08:39:36;;;;;;;4.55;1.60;;;;;;;;;;5074290;28;20024;-76
2024/02/12 08:42:03;;;;;;;3.83;1.25;;;;;;;;;;5075967;28;20504;-77
2024/02/12 08:44:31;;;;;;;7.20;2.25;;;;;;;;;;5069718;28;20036;-76
2024/02/12 08:46:56;;;;;;;3.92;1.50;;;;;;;;;;5072741;28;20476;-76
2024/02/12 08:49:22;;;;;;;4.25;1.38;;;;;;;;;;5080723;28;20031;-76
2024/02/12 08:51:47;;;;;;;3.80;1.52;;;;;;;;;;5082815;28;20044;-76
2024/02/12 08:54:12;;;;;;;3.92;1.40;;;;;;;;;;5082581;28;20057;-76
2024/02/12 08:56:39;;;;;;;3.75;1.27;;;;;;;;;;5078357;28;20024;-76
2024/02/12 08:59:06;;;;;;;5.38;1.50;;;;;;;;;;5075573;28;20078;-76
2024/02/12 09:01:31;;;;;;;4.10;1.75;;;;;;;;;;5074992;28;20032;-76
2024/02/12 09:03:57;;;;;;;4.00;1.50;;;;;;;;;;5077059;28;20036;-76
2024/02/12 09:06:22;;;;;;;3.63;1.33;;;;;;;;;;5073420;28;20107;-76
2024/02/12 09:08:47;;;;;;;4.40;2.05;;;;;;;;;;5076631;28;20043;-76
2024/02/12 09:11:13;;;;;;;5.25;2.15;;;;;;;;;;5081847;28;20036;-76
2024/02/12 09:13:39;;;;;;;4.50;2.08;;;;;;;;;;5077355;28;20028;-76
2024/02/12 09:16:05;;;;;;;3.47;1.85;;;;;;;;;;5073548;28;20704;-76
2024/02/12 09:18:30;;;;;;;5.55;2.45;;;;;;;;;;5076144;28;20033;-76
2024/02/12 09:20:56;;;;;;;5.78;3.38;;;;;;;;;;5072429;28;20028;-77
2024/02/12 09:23:21;;;;;;;5.25;2.25;;;;;;;;;;5084797;28;20492;-76
2024/02/12 09:25:48;;;;;;;6.10;3.15;;;;;;;;;;5081477;28;20038;-76
2024/02/12 09:28:13;;;;;;;4.85;2.55;;;;;;;;;;5078415;28;20442;-76
2024/02/12 09:30:39;;;;;;;4.77;2.40;;;;;;;;;;5083987;28;20039;-76
2024/02/12 09:33:10;;;;;;;4.05;1.48;;;;;;;;;;5072294;28;20286;-76
2024/02/12 09:35:35;;;;;;;5.22;1.98;;;;;;;;;;5072480;28;20402;-76
2024/02/12 09:38:03;;;;;;;5.82;2.70;;;;;;;;;;5075786;28;20063;-76
2024/02/12 09:40:32;;;;;;;4.32;1.77;;;;;;;;;;5072118;28;20039;-76
2024/02/12 09:42:58;;;;;;;7.35;1.90;;;;;;;;;;5071434;28;20116;-76
2024/02/12 09:45:26;;;;;;;6.75;2.58;;;;;;;;;;5072267;28;20036;-77
2024/02/12 09:47:52;;;;;;;8.73;2.88;;;;;;;;;;5075469;28;20040;-77
2024/02/12 09:50:18;;;;;;;6.05;2.95;;;;;;;;;;5078312;28;20028;-76
2024/02/12 09:52:44;;;;;;;7.07;4.22;;;;;;;;;;5075244;28;20028;-76
2024/02/12 09:55:11;;;;;;;4.15;2.47;;;;;;;;;;5070827;28;20457;-76
2024/02/12 09:57:37;;;;;;;3.65;1.65;;;;;;;;;;5080367;28;20020;-77
2024/02/12 10:00:07;;;;;;;5.60;2.42;;;;;;;;;;5078045;28;20028;-76
2024/02/12 10:02:41;;;;;;;5.00;1.92;;;;;;;;;;5080082;28;20032;-77
2024/02/12 10:05:08;;;;;;;5.45;2.13;;;;;;;;;;5078959;28;20062;-77
2024/02/12 10:07:39;;;;;;;3.72;1.90;;;;;;;;;;5077265;28;20039;-76
2024/02/12 10:10:06;;;;;;;4.93;1.80;;;;;;;;;;5074250;28;20036;-77
2024/02/12 10:12:31;;;;;;;4.63;1.95;;;;;;;;;;5076021;28;20028;-76
2024/02/12 10:14:57;;;;;;;5.22;2.00;;;;;;;;;;5072834;28;20044;-76
2024/02/12 10:17:23;;;;;;;5.03;1.95;;;;;;;;;;5081110;28;20036;-76
2024/02/12 10:19:49;;;;;;;4.13;1.90;;;;;;;;;;5075804;28;20034;-76
2024/02/12 10:22:14;;;;;;;5.85;2.00;;;;;;;;;;5077066;28;20040;-76
2024/02/12 10:24:41;;;;;;;6.72;2.00;;;;;;;;;;5076003;28;20024;-76
2024/02/12 10:27:07;;;;;;;3.92;1.60;;;;;;;;;;5075085;28;20054;-76
2024/02/12 10:29:32;;;;;;;3.78;1.80;;;;;;;;;;5078491;28;20115;-76
2024/02/12 10:31:59;;;;;;;3.85;1.67;;;;;;;;;;5082801;28;20039;-76
2024/02/12 10:34:28;;;;;;;3.05;1.58;;;;;;;;;;5071215;28;20092;-76
2024/02/12 10:36:54;;;;;;;4.65;1.80;;;;;;;;;;5077638;28;20033;-76
2024/02/12 10:39:21;;;;;;;4.57;1.85;;;;;;;;;;5075427;28;20032;-76
2024/02/12 10:41:50;;;;;;;4.03;1.75;;;;;;;;;;5071353;28;20043;-76
2024/02/12 10:44:17;;;;;;;5.82;2.50;;;;;;;;;;5070784;28;20060;-77
2024/02/12 10:46:42;;;;;;;6.15;2.55;;;;;;;;;;5071383;28;20066;-76
2024/02/12 10:49:07;;;;;;;4.78;2.30;;;;;;;;;;5071090;28;20472;-76
2024/02/12 10:51:35;;;;;;;4.07;1.85;;;;;;;;;;5072177;28;20059;-76
2024/02/12 10:54:01;;;;;;;4.32;2.30;;;;;;;;;;5077932;28;20025;-76
2024/02/12 10:56:26;;;;;;;3.95;1.75;;;;;;;;;;5080553;28;20035;-76
2024/02/12 10:58:52;;;;;;;8.07;2.30;;;;;;;;;;5076796;28;20226;-76
2024/02/12 11:01:17;;;;;;;5.25;2.55;;;;;;;;;;5079258;28;20028;-76
2024/02/12 11:03:47;;;;;;;6.45;2.65;;;;;;;;;;5078895;28;20389;-75
2024/02/12 11:06:15;;;;;;;4.13;2.17;;;;;;;;;;5072085;28;20056;-76
2024/02/12 11:08:41;;;;;;;5.70;2.70;;;;;;;;;;5072613;28;20027;-77
2024/02/12 11:11:14;;;;;;;7.20;2.60;;;;;;;;;;5079219;28;20099;-76
2024/02/12 11:13:42;;;;;;;4.93;2.67;;;;;;;;;;5076784;28;20037;-76
2024/02/12 11:16:12;;;;;;;5.57;2.78;;;;;;;;;;5074173;28;20634;-76
2024/02/12 11:18:37;;;;;;;5.28;3.05;;;;;;;;;;5072360;28;20150;-78
2024/02/12 11:21:04;;;;;;;6.90;2.75;;;;;;;;;;5077150;28;20036;-76
2024/02/12 11:23:30;;;;;;;4.93;2.53;;;;;;;;;;5083993;28;20028;-76
2024/02/12 11:25:56;;;;;;;5.30;2.47;;;;;;;;;;5074213;28;20393;-76
2024/02/12 11:28:23;;;;;;;6.15;3.08;;;;;;;;;;5074456;28;20032;-76
2024/02/12 11:30:49;;;;;;;6.65;2.92;;;;;;;;;;5068596;28;20044;-75
2024/02/12 11:33:14;;;;;;;4.68;2.38;;;;;;;;;;5086165;28;20028;-76
2024/02/12 11:35:39;;;;;;;5.13;2.75;;;;;;;;;;5085157;28;20024;-76
2024/02/12 11:38:07;;;;;;;7.38;3.47;;;;;;;;;;5085564;28;20110;-76
2024/02/12 11:40:34;;;;;;;6.78;3.00;;;;;;;;;;5085497;28;20032;-75
2024/02/12 11:43:00;;;;;;;6.95;3.42;;;;;;;;;;5088664;28;20166;-76
2024/02/12 11:45:26;;;;;;;4.88;2.67;;;;;;;;;;5079028;28;20107;-76
2024/02/12 11:47:51;;;;;;;4.90;2.95;;;;;;;;;;5082313;28;20021;-75
2024/02/12 11:50:20;;;;;;;7.10;3.40;;;;;;;;;;5083763;28;20032;-76
2024/02/12 11:52:45;;;;;;;5.50;2.88;;;;;;;;;;5085576;28;20047;-76
2024/02/12 11:55:11;;;;;;;6.57;3.15;;;;;;;;;;5083105;28;20028;-76
2024/02/12 11:57:37;;;;;;;6.00;2.95;;;;;;;;;;5078046;28;20020;-76
2024/02/12 12:00:05;;;;;;;7.00;3.22;;;;;;;;;;5069789;28;20503;-75
2024/02/12 12:02:37;;;;;;;5.70;3.40;;;;;;;;;;5076605;28;20504;-75
2024/02/12 12:05:02;;;;;;;4.85;2.70;;;;;;;;;;5079494;28;20047;-75
2024/02/12 12:07:28;;;;;;;9.43;3.20;;;;;;;;;;5073919;28;20031;-76
2024/02/12 12:10:04;;;;;;;6.80;3.20;;;;;;;;;;5069641;28;20046;-75
2024/02/12 12:12:30;;;;;;;6.65;3.08;;;;;;;;;;5074039;28;20039;-76
2024/02/12 12:15:01;;;;;;;5.75;2.78;;;;;;;;;;5069785;28;20029;-76
2024/02/12 12:17:26;;;;;;;6.70;3.45;;;;;;;;;;5076604;28;20032;-75
2024/02/12 12:19:51;;;;;;;4.55;2.60;;;;;;;;;;5076549;28;20031;-75
2024/02/12 12:22:19;;;;;;;5.72;3.00;;;;;;;;;;5076288;28;20173;-75
2024/02/12 12:24:45;;;;;;;5.78;2.63;;;;;;;;;;5073194;28;20253;-75
2024/02/12 12:27:20;;;;;;;6.60;3.03;;;;;;;;;;5072551;28;20708;-75
2024/02/12 12:29:47;;;;;;;10.40;3.05;;;;;;;;;;5074409;28;20033;-76
2024/02/12 12:32:13;;;;;;;5.32;2.63;;;;;;;;;;5079771;28;20075;-76
2024/02/12 12:34:38;;;;;;;5.33;2.47;;;;;;;;;;5073711;28;20040;-75
2024/02/12 12:37:03;;;;;;;7.23;3.03;;;;;;;;;;5078137;28;20327;-75
2024/02/12 12:39:30;;;;;;;5.38;2.75;;;;;;;;;;5076768;28;20275;-75
2024/02/12 12:41:56;;;;;;;6.03;2.92;;;;;;;;;;5072210;28;20032;-75
2024/02/12 12:44:22;;;;;;;6.65;3.05;;;;;;;;;;5076210;28;20412;-75
2024/02/12 12:46:47;;;;;;;6.13;3.25;;;;;;;;;;5077671;28;20131;-76
2024/02/12 12:49:13;;;;;;;5.67;3.33;;;;;;;;;;5081839;28;20456;-76
2024/02/12 12:51:38;;;;;;;10.50;3.85;;;;;;;;;;5078000;28;20293;-76
2024/02/12 12:54:04;;;;;;;7.90;3.63;;;;;;;;;;5076182;28;20029;-76
2024/02/12 12:56:29;;;;;;;5.63;2.90;;;;;;;;;;5073782;28;20041;-76
2024/02/12 12:58:56;;;;;;;8.38;3.28;;;;;;;;;;5074672;28;20043;-76
2024/02/12 13:01:21;;;;;;;6.70;3.10;;;;;;;;;;5079641;28;20036;-76
2024/02/12 13:03:49;;;;;;;6.05;2.92;;;;;;;;;;5077731;28;20051;-76
2024/02/12 13:06:14;;;;;;;7.07;3.28;;;;;;;;;;5072648;28;20043;-76
2024/02/12 13:08:42;;;;;;;7.90;3.90;;;;;;;;;;5081439;28;20032;-76
2024/02/12 13:11:07;;;;;;;4.85;2.75;;;;;;;;;;5075136;28;20781;-76
2024/02/12 13:13:34;;;;;;;6.32;2.95;;;;;;;;;;5073204;28;20043;-76
2024/02/12 13:15:59;;;;;;;12.02;2.90;;;;;;;;;;5077104;28;20488;-76
2024/02/12 13:18:29;;;;;;;6.07;2.30;;;;;;;;;;5078585;28;20107;-76
2024/02/12 13:20:55;;;;;;;4.68;2.40;;;;;;;;;;5072477;28;20037;-76
2024/02/12 13:23:20;;;;;;;4.88;2.47;;;;;;;;;;5071496;28;20404;-76
2024/02/12 13:25:46;;;;;;;4.50;2.00;;;;;;;;;;5071430;28;20485;-76
2024/02/12 13:28:12;;;;;;;4.82;2.40;;;;;;;;;;5083869;28;20546;-76
2024/02/12 13:30:37;;;;;;;4.18;2.45;;;;;;;;;;5081824;28;20477;-76
2024/02/12 13:33:09;;;;;;;5.53;2.70;;;;;;;;;;5082639;28;20032;-76
2024/02/12 13:35:39;;;;;;;5.22;2.85;;;;;;;;;;5082524;28;20438;-75
2024/02/12 13:38:04;;;;;;;8.07;3.50;;;;;;;;;;5079559;28;20039;-75
2024/02/12 13:40:30;;;;;;;6.28;3.08;;;;;;;;;;5073830;28;20393;-75
2024/02/12 13:42:55;;;;;;;6.10;3.50;;;;;;;;;;5072339;28;20036;-75
2024/02/12 13:45:20;;;;;;;5.70;3.67;;;;;;;;;;5072225;28;20041;-75
2024/02/12 13:47:46;;;;;;;6.53;3.70;;;;;;;;;;5078371;28;20381;-75
2024/02/12 13:50:11;;;;;;;6.70;4.07;;;;;;;;;;5071718;28;20729;-75
2024/02/12 13:52:37;;;;;;;8.50;4.57;;;;;;;;;;5076846;28;20443;-75
2024/02/12 13:55:06;;;;;;;8.85;4.78;;;;;;;;;;5078049;28;20480;-75
2024/02/12 13:57:36;;;;;;;;;;;;;;;;;;5081805;28;20024;-75
2024/02/12 14:00:01;;;;;;;6.05;3.90;;;;;;;;;;5080159;28;19957;-75
2024/02/12 14:02:26;;;;;;;6.60;3.47;;;;;;;;;;5078669;28;20103;-75
2024/02/12 14:04:53;;;;;;;7.45;4.35;;;;;;;;;;5071956;28;20155;-75
2024/02/12 14:07:18;;;;;;;10.50;4.78;;;;;;;;;;5080509;28;20033;-75
2024/02/12 14:09:43;;;;;;;9.30;4.47;;;;;;;;;;5077863;28;20161;-75
2024/02/12 14:12:08;;;;;;;8.50;4.68;;;;;;;;;;5071600;28;20127;-75
2024/02/12 14:14:34;;;;;;;9.23;5.75;;;;;;;;;;5071994;28;20443;-75
2024/02/12 14:16:59;;;;;;;8.25;5.10;;;;;;;;;;5072096;28;20028;-75
2024/02/12 14:19:24;;;;;;;7.82;4.60;;;;;;;;;;5076226;28;20526;-75
2024/02/12 14:21:49;;;;;;;7.18;4.55;;;;;;;;;;5074300;28;20041;-75
2024/02/12 14:24:14;;;;;;;7.20;3.80;;;;;;;;;;5073067;28;20040;-75
2024/02/12 14:26:45;;;;;;;5.63;3.15;;;;;;;;;;5077568;28;20032;-75
2024/02/12 14:29:11;;;;;;;4.95;3.15;;;;;;;;;;5081655;28;20036;-75
2024/02/12 14:31:37;;;;;;;5.13;3.30;;;;;;;;;;5071097;28;20028;-75
2024/02/12 14:34:02;;;;;;;6.53;3.72;;;;;;;;;;5072300;28;20025;-75
2024/02/12 14:36:31;;;;;;;6.20;3.15;;;;;;;;;;5071513;28;20024;-75
2024/02/12 14:38:56;;;;;;;7.10;3.97;;;;;;;;;;5078883;28;20178;-75
2024/02/12 14:41:23;;;;;;;7.20;4.18;;;;;;;;;;5069464;28;20544;-75
2024/02/12 14:43:48;;;;;;;6.32;3.92;;;;;;;;;;5081263;28;20401;-75
2024/02/12 14:46:14;;;;;;;6.90;3.40;;;;;;;;;;5077329;28;20024;-75
2024/02/12 14:48:39;;;;;;;6.75;4.18;;;;;;;;;;5080117;28;20027;-75
2024/02/12 14:51:04;;;;;;;6.22;3.20;;;;;;;;;;5074141;28;20129;-75
2024/02/12 14:53:31;;;;;;;7.30;4.25;;;;;;;;;;5071146;28;20032;-75